RYR21ER EHRD-EGKK
Flight info
| Callsign | RYR21ER |
|---|---|
| Flight time | N/A |
| Altitude | 31000 |
| Route | ABNED Z344 AMRIV Q63 ARREK Y4 TEBRA |
| Aircraft | B738/M-SDE2E3FGHIRWXY/LB1 |
Departure
| Time | 2026-05-06 12:52 |
|---|---|
| Airport | Rotterdam The Hague Airport (EHRD) |
Arrival
| Time | N/A |
|---|---|
| Airport | London Gatwick Airport (EGKK) |
| Time | Latitude | Longitude | Altitude | Speed | Heading |
|---|---|---|---|---|---|
| 2026-05-06 12:19 | 51.95035 | 4.43569 | -8 ft | 0 kts | 327° |
| 2026-05-06 12:47 | 51.95044 | 4.43560 | -7 ft | 9 kts | 330° |
| 2026-05-06 12:47 | 51.95129 | 4.43551 | -7 ft | 14 kts | 333° |
| 2026-05-06 12:47 | 51.95218 | 4.43458 | -8 ft | 17 kts | 326° |
| 2026-05-06 12:48 | 51.95239 | 4.43390 | -8 ft | 5 kts | 247° |
| 2026-05-06 12:48 | 51.95197 | 4.43287 | -7 ft | 20 kts | 236° |
| 2026-05-06 12:48 | 51.95134 | 4.43117 | -6 ft | 16 kts | 243° |
| 2026-05-06 12:48 | 51.95130 | 4.42950 | -5 ft | 16 kts | 302° |
| 2026-05-06 12:49 | 51.95220 | 4.42882 | -4 ft | 12 kts | 17° |
| 2026-05-06 12:49 | 51.95243 | 4.42916 | -4 ft | 0 kts | 55° |
| 2026-05-06 12:51 | 51.95244 | 4.42919 | -4 ft | 3 kts | 55° |
| 2026-05-06 12:52 | 51.95395 | 4.43289 | -8 ft | 78 kts | 57° |
| 2026-05-06 12:52 | 51.95818 | 4.44353 | -4 ft | 143 kts | 57° |
| 2026-05-06 12:52 | 51.96351 | 4.45750 | 704 ft | 147 kts | 54° |
| 2026-05-06 12:52 | 51.96910 | 4.47247 | 1398 ft | 160 kts | 57° |
| 2026-05-06 12:53 | 51.97482 | 4.48831 | 2128 ft | 177 kts | 57° |
| 2026-05-06 12:53 | 51.98231 | 4.50603 | 2457 ft | 204 kts | 45° |
| 2026-05-06 12:53 | 51.99257 | 4.51752 | 3027 ft | 209 kts | 24° |
| 2026-05-06 12:53 | 52.00687 | 4.52183 | 3733 ft | 215 kts | 359° |
| 2026-05-06 12:54 | 52.02139 | 4.51464 | 4390 ft | 227 kts | 330° |
| 2026-05-06 12:54 | 52.03264 | 4.49618 | 4819 ft | 239 kts | 303° |
| 2026-05-06 12:54 | 52.03699 | 4.47007 | 4780 ft | 246 kts | 271° |
| 2026-05-06 12:54 | 52.03206 | 4.44356 | 4749 ft | 249 kts | 237° |
| 2026-05-06 12:55 | 52.01992 | 4.42478 | 4983 ft | 241 kts | 215° |
| 2026-05-06 12:55 | 52.00585 | 4.40928 | 5416 ft | 247 kts | 214° |
| 2026-05-06 12:55 | 51.99611 | 4.39851 | 5906 ft | 252 kts | 216° |
| 2026-05-06 12:55 | 51.98203 | 4.38244 | 6945 ft | 246 kts | 217° |
| 2026-05-06 12:56 | 51.96849 | 4.36515 | 7698 ft | 250 kts | 232° |
| 2026-05-06 12:56 | 51.96120 | 4.33952 | 8243 ft | 262 kts | 261° |
| 2026-05-06 12:56 | 51.95850 | 4.30908 | 8685 ft | 279 kts | 264° |
| 2026-05-06 12:56 | 51.95618 | 4.27790 | 9468 ft | 285 kts | 265° |
| 2026-05-06 12:57 | 51.95377 | 4.24592 | 10299 ft | 289 kts | 264° |